Time;durP1;ratioP1;P1;durP2;ratioP2;P2;SDS_P1;SDS_P2;PMS_P1;PMS_P2;Temp;Humidity;BMP_temperature;BMP_pressure;BME280_temperature;BME280_humidity;BME280_pressure;Samples;Min_cycle;Max_cycle;Signal;HPM_P1;HPM_P2
2021/04/22 00:01:36;;;;;;;35.30;20.17;;;;;;;;;;736275;189;920417;-64
2021/04/22 00:04:02;;;;;;;26.87;19.80;;;;;;;;;;740797;189;919502;-63
2021/04/22 00:06:27;;;;;;;37.40;22.53;;;;;;;;;;738168;187;922771;-63
2021/04/22 00:08:55;;;;;;;32.63;22.17;;;;;;;;;;737087;189;935489;-64
2021/04/22 00:11:21;;;;;;;32.30;22.57;;;;;;;;;;742164;189;916695;-63
2021/04/22 00:13:47;;;;;;;36.80;23.83;;;;;;;;;;738151;189;916130;-63
2021/04/22 00:16:13;;;;;;;45.37;23.13;;;;;;;;;;736535;189;769841;-64
2021/04/22 00:18:39;;;;;;;42.03;24.63;;;;;;;;;;741338;189;918735;-64
2021/04/22 00:21:05;;;;;;;38.60;24.33;;;;;;;;;;736714;187;919738;-65
2021/04/22 00:23:31;;;;;;;37.10;23.60;;;;;;;;;;733885;189;920424;-63
2021/04/22 00:25:57;;;;;;;42.73;24.97;;;;;;;;;;734629;189;919867;-64
2021/04/22 00:28:22;;;;;;;49.03;27.47;;;;;;;;;;738379;189;968812;-64
2021/04/22 00:30:48;;;;;;;34.70;22.80;;;;;;;;;;735368;189;919086;-63
2021/04/22 00:33:14;;;;;;;39.50;24.57;;;;;;;;;;730454;190;919234;-64
2021/04/22 00:35:40;;;;;;;49.93;24.93;;;;;;;;;;736233;189;919186;-63
2021/04/22 00:38:06;;;;;;;35.30;23.90;;;;;;;;;;734253;189;920525;-63
2021/04/22 00:40:32;;;;;;;37.38;24.10;;;;;;;;;;728280;189;1018559;-63
2021/04/22 00:42:58;;;;;;;35.90;21.93;;;;;;;;;;742622;189;919983;-63
2021/04/22 00:45:25;;;;;;;38.13;22.77;;;;;;;;;;734932;189;896001;-67
2021/04/22 00:47:50;;;;;;;38.10;22.77;;;;;;;;;;736010;189;917278;-66
2021/04/22 00:50:16;;;;;;;28.37;20.00;;;;;;;;;;734851;189;1021777;-63
2021/04/22 00:52:42;;;;;;;30.10;20.40;;;;;;;;;;737353;189;913360;-63
2021/04/22 00:55:08;;;;;;;33.97;21.33;;;;;;;;;;735443;189;920133;-63
2021/04/22 00:57:34;;;;;;;29.23;18.37;;;;;;;;;;733692;189;918850;-64
2021/04/22 01:00:00;;;;;;;29.40;20.27;;;;;;;;;;738616;189;1020150;-64
2021/04/22 01:02:26;;;;;;;29.27;19.80;;;;;;;;;;736393;189;816208;-64
2021/04/22 01:04:52;;;;;;;26.17;18.47;;;;;;;;;;733856;189;919927;-64
2021/04/22 01:07:18;;;;;;;22.90;16.20;;;;;;;;;;738857;189;935469;-64
2021/04/22 01:09:44;;;;;;;27.30;19.47;;;;;;;;;;733250;189;919750;-64
2021/04/22 01:12:09;;;;;;;30.57;19.20;;;;;;;;;;731127;189;920182;-64
2021/04/22 01:14:35;;;;;;;25.60;16.77;;;;;;;;;;734974;189;920444;-63
2021/04/22 01:17:01;;;;;;;26.07;16.07;;;;;;;;;;739519;189;919080;-64
2021/04/22 01:19:27;;;;;;;23.37;14.03;;;;;;;;;;739663;189;932570;-63
2021/04/22 01:21:53;;;;;;;21.17;15.57;;;;;;;;;;733542;189;914610;-66
2021/04/22 01:24:19;;;;;;;24.10;15.43;;;;;;;;;;728609;193;918138;-64
2021/04/22 01:26:44;;;;;;;24.97;17.53;;;;;;;;;;733770;189;918738;-67
2021/04/22 01:29:10;;;;;;;26.37;17.20;;;;;;;;;;726974;189;919106;-64
2021/04/22 01:31:36;;;;;;;20.77;15.30;;;;;;;;;;740962;189;918777;-64
2021/04/22 01:34:03;;;;;;;27.10;18.77;;;;;;;;;;734067;189;919401;-63
2021/04/22 01:36:31;;;;;;;22.93;15.90;;;;;;;;;;736032;189;919515;-64
2021/04/22 01:38:57;;;;;;;26.50;17.70;;;;;;;;;;733084;189;918940;-63
2021/04/22 01:41:23;;;;;;;24.03;17.67;;;;;;;;;;738350;189;1109735;-64
2021/04/22 01:43:49;;;;;;;24.80;16.50;;;;;;;;;;731184;189;1349865;-63
2021/04/22 01:46:15;;;;;;;26.00;16.50;;;;;;;;;;737340;189;919194;-64
2021/04/22 01:48:40;;;;;;;26.93;19.40;;;;;;;;;;739567;189;815874;-64
2021/04/22 01:51:08;;;;;;;32.13;18.80;;;;;;;;;;735257;189;998193;-64
2021/04/22 01:53:33;;;;;;;24.93;17.73;;;;;;;;;;735570;189;920405;-63
2021/04/22 01:55:58;;;;;;;26.30;16.63;;;;;;;;;;743893;189;824531;-64
2021/04/22 01:58:25;;;;;;;30.13;17.77;;;;;;;;;;732223;189;920411;-66
2021/04/22 02:00:50;;;;;;;27.33;18.03;;;;;;;;;;739583;189;916618;-63
2021/04/22 02:03:16;;;;;;;26.80;17.07;;;;;;;;;;730273;189;1705214;-63
2021/04/22 02:05:43;;;;;;;21.83;15.70;;;;;;;;;;740360;189;916188;-66
2021/04/22 02:08:09;;;;;;;24.87;16.97;;;;;;;;;;731521;189;919162;-65
2021/04/22 02:10:34;;;;;;;26.37;17.50;;;;;;;;;;731442;189;1048092;-63
2021/04/22 02:13:00;;;;;;;28.33;17.17;;;;;;;;;;736869;189;896370;-64
2021/04/22 02:15:26;;;;;;;23.40;17.03;;;;;;;;;;737033;189;915692;-64
2021/04/22 02:17:52;;;;;;;25.60;18.15;;;;;;;;;;734498;189;1142132;-63
2021/04/22 02:20:18;;;;;;;24.00;15.87;;;;;;;;;;740597;189;919798;-64
2021/04/22 02:22:44;;;;;;;25.50;17.73;;;;;;;;;;736062;189;917521;-64
2021/04/22 02:25:10;;;;;;;27.57;18.50;;;;;;;;;;728989;189;915118;-64
2021/04/22 02:27:37;;;;;;;26.05;17.23;;;;;;;;;;738236;189;915096;-63
2021/04/22 02:30:03;;;;;;;28.77;18.80;;;;;;;;;;734829;188;915347;-64
2021/04/22 02:32:29;;;;;;;28.80;19.33;;;;;;;;;;731807;189;915168;-63
2021/04/22 02:34:54;;;;;;;28.80;18.50;;;;;;;;;;731613;189;915608;-64
2021/04/22 02:37:20;;;;;;;29.00;18.77;;;;;;;;;;742567;189;915513;-64
2021/04/22 02:39:48;;;;;;;28.20;19.17;;;;;;;;;;732436;189;916331;-66
2021/04/22 02:42:14;;;;;;;31.60;18.13;;;;;;;;;;734685;189;915386;-64
2021/04/22 02:44:40;;;;;;;32.27;19.13;;;;;;;;;;739655;189;909619;-64
2021/04/22 02:47:05;;;;;;;35.20;19.37;;;;;;;;;;733470;189;915379;-64
2021/04/22 02:49:31;;;;;;;32.90;19.23;;;;;;;;;;726786;189;916367;-64
2021/04/22 02:51:58;;;;;;;30.62;20.70;;;;;;;;;;734984;189;914644;-63
2021/04/22 02:54:24;;;;;;;33.50;20.70;;;;;;;;;;740236;189;915647;-65
2021/04/22 02:56:49;;;;;;;30.00;19.63;;;;;;;;;;733538;189;916123;-65
2021/04/22 02:59:15;;;;;;;33.70;19.93;;;;;;;;;;732613;189;916338;-66
2021/04/22 03:01:41;;;;;;;32.73;21.13;;;;;;;;;;739854;189;906229;-64
2021/04/22 03:04:07;;;;;;;31.90;21.10;;;;;;;;;;738923;189;920245;-64
2021/04/22 03:06:33;;;;;;;33.63;20.67;;;;;;;;;;734654;189;915902;-64
2021/04/22 03:08:59;;;;;;;31.43;21.07;;;;;;;;;;740721;189;921724;-64
2021/04/22 03:11:25;;;;;;;33.03;21.07;;;;;;;;;;733604;189;927361;-64
2021/04/22 03:13:50;;;;;;;32.47;21.30;;;;;;;;;;728900;189;919178;-65
2021/04/22 03:16:17;;;;;;;32.40;21.80;;;;;;;;;;736029;189;919349;-65
2021/04/22 03:18:42;;;;;;;33.80;21.63;;;;;;;;;;736285;189;917964;-63
2021/04/22 03:21:08;;;;;;;36.33;21.87;;;;;;;;;;737316;189;921110;-65
2021/04/22 03:23:34;;;;;;;34.00;20.50;;;;;;;;;;734642;189;918626;-64
2021/04/22 03:26:00;;;;;;;31.60;19.93;;;;;;;;;;741267;189;919138;-64
2021/04/22 03:28:26;;;;;;;36.40;22.30;;;;;;;;;;736327;189;918958;-64
2021/04/22 03:30:52;;;;;;;36.47;21.80;;;;;;;;;;734703;189;919052;-64
2021/04/22 03:33:17;;;;;;;26.87;20.13;;;;;;;;;;738806;189;912889;-64
2021/04/22 03:35:43;;;;;;;34.33;20.90;;;;;;;;;;734727;189;919556;-64
2021/04/22 03:38:09;;;;;;;32.93;22.70;;;;;;;;;;721140;189;2983313;-64
2021/04/22 03:40:35;;;;;;;30.30;19.97;;;;;;;;;;740160;189;920352;-64
2021/04/22 03:43:01;;;;;;;34.80;21.80;;;;;;;;;;734790;189;918070;-65
2021/04/22 03:45:27;;;;;;;42.83;25.60;;;;;;;;;;737407;189;880025;-65
2021/04/22 03:47:52;;;;;;;39.43;25.03;;;;;;;;;;736005;189;914489;-64
2021/04/22 03:50:18;;;;;;;40.85;23.80;;;;;;;;;;745069;185;913419;-64
2021/04/22 03:52:44;;;;;;;50.27;28.40;;;;;;;;;;735247;189;846366;-65
2021/04/22 03:55:10;;;;;;;36.37;24.27;;;;;;;;;;736602;189;913866;-64
2021/04/22 03:57:36;;;;;;;43.03;25.20;;;;;;;;;;738269;189;907188;-64
2021/04/22 04:00:02;;;;;;;44.80;26.03;;;;;;;;;;729866;188;1173338;-66
2021/04/22 04:02:28;;;;;;;42.20;26.97;;;;;;;;;;737268;189;920634;-64
2021/04/22 04:04:54;;;;;;;42.33;25.07;;;;;;;;;;741247;189;908291;-64
2021/04/22 04:07:20;;;;;;;44.97;25.53;;;;;;;;;;739424;189;916049;-64
2021/04/22 04:09:45;;;;;;;38.37;23.67;;;;;;;;;;736340;189;916250;-64
2021/04/22 04:12:11;;;;;;;40.83;24.63;;;;;;;;;;741253;189;918614;-64
2021/04/22 04:14:37;;;;;;;45.97;24.35;;;;;;;;;;730885;189;921653;-64
2021/04/22 04:17:03;;;;;;;51.07;26.63;;;;;;;;;;737089;189;919363;-64
2021/04/22 04:19:29;;;;;;;47.30;28.60;;;;;;;;;;731340;189;922260;-65
2021/04/22 04:21:55;;;;;;;52.07;29.67;;;;;;;;;;740921;189;943233;-64
2021/04/22 04:24:21;;;;;;;47.83;28.40;;;;;;;;;;732774;189;910188;-63
2021/04/22 04:26:46;;;;;;;53.90;28.37;;;;;;;;;;729946;189;913884;-64
2021/04/22 04:29:12;;;;;;;53.53;31.17;;;;;;;;;;738402;189;909593;-64
2021/04/22 04:31:38;;;;;;;58.90;31.53;;;;;;;;;;731639;189;913573;-64
2021/04/22 04:34:04;;;;;;;60.07;32.37;;;;;;;;;;735419;189;932685;-64
2021/04/22 04:36:30;;;;;;;68.60;32.07;;;;;;;;;;739227;189;903787;-64
2021/04/22 04:38:56;;;;;;;56.70;31.97;;;;;;;;;;736443;189;1061273;-64
2021/04/22 04:41:22;;;;;;;66.70;33.67;;;;;;;;;;735032;189;921903;-64
2021/04/22 04:43:47;;;;;;;62.67;33.00;;;;;;;;;;733211;189;920372;-64
2021/04/22 04:46:17;;;;;;;63.55;37.17;;;;;;;;;;744525;185;912568;-64
2021/04/22 04:48:39;;;;;;;65.90;33.57;;;;;;;;;;736164;189;912046;-64
2021/04/22 04:51:05;;;;;;;71.17;35.33;;;;;;;;;;735721;188;912744;-63
2021/04/22 04:53:31;;;;;;;64.00;35.40;;;;;;;;;;744891;188;911903;-63
2021/04/22 04:55:57;;;;;;;59.00;31.90;;;;;;;;;;734077;189;948631;-63
2021/04/22 04:58:23;;;;;;;54.30;32.37;;;;;;;;;;732760;189;912789;-65
2021/04/22 05:00:49;;;;;;;67.27;35.57;;;;;;;;;;740190;189;920058;-65
2021/04/22 05:03:14;;;;;;;66.27;35.17;;;;;;;;;;736876;189;912153;-64
2021/04/22 05:05:40;;;;;;;68.00;36.53;;;;;;;;;;733207;189;1160614;-64
2021/04/22 05:08:06;;;;;;;76.80;39.23;;;;;;;;;;743409;189;920339;-63
2021/04/22 05:10:32;;;;;;;69.70;37.93;;;;;;;;;;735309;189;913340;-66
2021/04/22 05:12:58;;;;;;;67.43;37.15;;;;;;;;;;733969;189;913462;-64
2021/04/22 05:15:25;;;;;;;75.47;37.50;;;;;;;;;;733565;189;1147447;-65
2021/04/22 05:17:51;;;;;;;86.77;42.40;;;;;;;;;;742627;189;809885;-63
2021/04/22 05:20:17;;;;;;;77.53;38.33;;;;;;;;;;734489;189;911727;-63
2021/04/22 05:22:43;;;;;;;87.07;42.60;;;;;;;;;;735457;189;915671;-63
2021/04/22 05:25:09;;;;;;;83.50;43.17;;;;;;;;;;740407;189;915579;-63
2021/04/22 05:27:35;;;;;;;88.23;39.00;;;;;;;;;;725029;189;916268;-63
2021/04/22 05:30:01;;;;;;;82.50;41.97;;;;;;;;;;735483;189;920183;-64
2021/04/22 05:32:27;;;;;;;82.50;42.33;;;;;;;;;;736771;189;897139;-63
2021/04/22 05:34:56;;;;;;;67.97;36.23;;;;;;;;;;737751;189;869731;-64
2021/04/22 05:37:21;;;;;;;67.37;35.37;;;;;;;;;;737703;189;627394;-64
2021/04/22 05:39:47;;;;;;;67.07;37.40;;;;;;;;;;738765;189;638103;-64
2021/04/22 05:42:13;;;;;;;66.37;33.57;;;;;;;;;;738942;189;618892;-64
2021/04/22 05:44:39;;;;;;;68.13;34.20;;;;;;;;;;737411;189;617819;-65
2021/04/22 05:47:06;;;;;;;79.90;37.37;;;;;;;;;;732479;189;625784;-65
2021/04/22 05:49:32;;;;;;;72.50;37.87;;;;;;;;;;736406;189;657002;-64
2021/04/22 05:51:58;;;;;;;56.30;32.70;;;;;;;;;;737573;189;633241;-65
2021/04/22 05:54:24;;;;;;;57.80;37.27;;;;;;;;;;731177;189;916395;-64
2021/04/22 05:56:50;;;;;;;68.73;36.67;;;;;;;;;;734707;189;897291;-63
2021/04/22 05:59:16;;;;;;;60.70;35.27;;;;;;;;;;742203;186;913991;-63
2021/04/22 06:01:42;;;;;;;56.50;35.70;;;;;;;;;;735159;189;920804;-65
2021/04/22 06:04:08;;;;;;;58.83;34.63;;;;;;;;;;733818;188;916579;-65
2021/04/22 06:06:33;;;;;;;56.10;34.77;;;;;;;;;;743765;189;916794;-64
2021/04/22 06:08:59;;;;;;;56.10;31.40;;;;;;;;;;736485;189;1017556;-63
2021/04/22 06:11:26;;;;;;;56.23;32.33;;;;;;;;;;735231;189;1022769;-63
2021/04/22 06:13:52;;;;;;;46.23;31.50;;;;;;;;;;738948;189;816699;-65
2021/04/22 06:16:18;;;;;;;51.23;32.97;;;;;;;;;;739342;189;917511;-66
2021/04/22 06:18:44;;;;;;;45.53;29.60;;;;;;;;;;735619;189;960296;-63
2021/04/22 06:21:11;;;;;;;49.13;30.63;;;;;;;;;;739494;189;939857;-66
2021/04/22 06:23:36;;;;;;;46.93;30.27;;;;;;;;;;732829;189;922235;-65
2021/04/22 06:26:01;;;;;;;43.53;29.63;;;;;;;;;;735483;189;914061;-63
2021/04/22 06:28:27;;;;;;;41.63;28.90;;;;;;;;;;734263;189;917248;-63
2021/04/22 06:30:53;;;;;;;44.53;29.53;;;;;;;;;;743299;189;921449;-63
2021/04/22 06:33:19;;;;;;;48.10;30.27;;;;;;;;;;736534;189;989848;-63
2021/04/22 06:35:45;;;;;;;51.03;34.80;;;;;;;;;;730333;189;1748239;-64
2021/04/22 06:38:11;;;;;;;47.13;30.83;;;;;;;;;;735747;189;921541;-64
2021/04/22 06:40:37;;;;;;;47.60;30.47;;;;;;;;;;733098;189;919201;-62
2021/04/22 06:43:02;;;;;;;42.00;28.40;;;;;;;;;;735431;189;916129;-64
2021/04/22 06:45:28;;;;;;;43.00;29.87;;;;;;;;;;739146;189;915778;-63
2021/04/22 06:47:54;;;;;;;36.50;26.57;;;;;;;;;;735661;189;928614;-63
2021/04/22 06:50:20;;;;;;;33.40;23.05;;;;;;;;;;731369;189;917115;-63
2021/04/22 06:52:46;;;;;;;34.47;25.27;;;;;;;;;;735623;189;915967;-64
2021/04/22 06:55:13;;;;;;;38.73;22.83;;;;;;;;;;736557;189;915975;-63
2021/04/22 06:57:39;;;;;;;28.20;20.93;;;;;;;;;;729898;189;941470;-63
2021/04/22 07:00:06;;;;;;;32.23;21.57;;;;;;;;;;734877;189;1042350;-64
2021/04/22 07:02:32;;;;;;;26.30;19.87;;;;;;;;;;741664;189;915627;-64
2021/04/22 07:04:59;;;;;;;26.50;18.10;;;;;;;;;;735545;189;923410;-63
2021/04/22 07:07:25;;;;;;;26.43;19.20;;;;;;;;;;736015;189;915950;-63
2021/04/22 07:09:51;;;;;;;20.50;15.40;;;;;;;;;;739529;189;915000;-63
2021/04/22 07:12:17;;;;;;;24.60;18.33;;;;;;;;;;731190;189;915711;-63
2021/04/22 07:14:42;;;;;;;24.53;16.27;;;;;;;;;;736625;188;922345;-63
2021/04/22 07:17:08;;;;;;;22.37;17.67;;;;;;;;;;736762;189;916310;-63
2021/04/22 07:19:36;;;;;;;29.10;17.80;;;;;;;;;;743381;189;913099;-63
2021/04/22 07:22:01;;;;;;;25.60;18.40;;;;;;;;;;736390;189;914761;-64
2021/04/22 07:24:27;;;;;;;26.75;19.58;;;;;;;;;;736503;189;915886;-63
2021/04/22 07:26:53;;;;;;;21.40;17.20;;;;;;;;;;741381;189;907331;-63
2021/04/22 07:29:19;;;;;;;24.13;17.90;;;;;;;;;;735703;189;920212;-63
2021/04/22 07:31:46;;;;;;;24.70;19.00;;;;;;;;;;732786;189;1409386;-63
2021/04/22 07:34:10;;;;;;;25.30;17.30;;;;;;;;;;740990;189;918957;-64
2021/04/22 07:36:36;;;;;;;26.53;18.87;;;;;;;;;;735099;189;919543;-63
2021/04/22 07:39:02;;;;;;;25.83;18.20;;;;;;;;;;735560;189;919609;-63
2021/04/22 07:41:30;;;;;;;25.30;18.98;;;;;;;;;;730932;189;2776269;-65
2021/04/22 07:43:56;;;;;;;30.80;19.47;;;;;;;;;;747919;185;919239;-63
2021/04/22 07:46:22;;;;;;;24.83;18.10;;;;;;;;;;735788;189;919207;-63
2021/04/22 07:48:48;;;;;;;26.83;19.80;;;;;;;;;;734615;189;919081;-64
2021/04/22 07:51:14;;;;;;;24.97;17.27;;;;;;;;;;737854;189;919327;-63
2021/04/22 07:53:40;;;;;;;27.67;18.53;;;;;;;;;;730278;189;915043;-63
2021/04/22 07:56:06;;;;;;;29.03;16.80;;;;;;;;;;734763;189;919901;-67
2021/04/22 07:58:32;;;;;;;29.23;18.60;;;;;;;;;;737543;189;912023;-64
2021/04/22 08:00:57;;;;;;;25.90;18.30;;;;;;;;;;737187;189;919528;-64
2021/04/22 08:03:24;;;;;;;27.20;17.33;;;;;;;;;;735808;189;920661;-63
2021/04/22 08:05:55;;;;;;;25.53;16.93;;;;;;;;;;731515;189;915626;-63
2021/04/22 08:08:15;;;;;;;27.73;16.80;;;;;;;;;;738725;189;915858;-63
2021/04/22 08:10:41;;;;;;;24.33;15.60;;;;;;;;;;734916;189;916588;-64
2021/04/22 08:13:07;;;;;;;22.20;12.60;;;;;;;;;;727281;189;1605179;-63
2021/04/22 08:15:33;;;;;;;21.60;12.43;;;;;;;;;;737183;189;916037;-64
2021/04/22 08:17:59;;;;;;;19.87;9.87;;;;;;;;;;732824;186;915726;-65
2021/04/22 08:20:25;;;;;;;25.93;14.80;;;;;;;;;;738874;189;877019;-65
2021/04/22 08:22:52;;;;;;;16.27;10.37;;;;;;;;;;740341;189;950086;-63
2021/04/22 08:25:19;;;;;;;21.60;14.33;;;;;;;;;;735891;189;919468;-64
2021/04/22 08:27:46;;;;;;;21.87;14.23;;;;;;;;;;736802;189;918882;-67
2021/04/22 08:30:12;;;;;;;15.37;9.80;;;;;;;;;;737555;189;910714;-64
2021/04/22 08:32:38;;;;;;;18.83;11.90;;;;;;;;;;741515;189;909711;-64
2021/04/22 08:35:04;;;;;;;13.60;10.03;;;;;;;;;;732145;189;920689;-66
2021/04/22 08:37:30;;;;;;;10.67;9.43;;;;;;;;;;736728;189;919204;-66
2021/04/22 08:39:55;;;;;;;17.77;11.75;;;;;;;;;;734378;189;909778;-69
2021/04/22 08:42:21;;;;;;;23.10;10.67;;;;;;;;;;736486;189;921711;-67
2021/04/22 08:44:47;;;;;;;37.60;19.87;;;;;;;;;;732082;189;917412;-67
2021/04/22 08:47:13;;;;;;;25.77;11.70;;;;;;;;;;738743;189;915479;-67
2021/04/22 08:49:39;;;;;;;22.23;15.00;;;;;;;;;;733996;189;919217;-66
2021/04/22 08:52:05;;;;;;;14.77;11.40;;;;;;;;;;737894;189;905735;-67
2021/04/22 08:54:31;;;;;;;21.63;10.37;;;;;;;;;;734838;189;919810;-68
2021/04/22 08:56:58;;;;;;;16.17;10.03;;;;;;;;;;743253;186;915907;-67
2021/04/22 08:59:22;;;;;;;11.50;6.90;;;;;;;;;;731563;189;915756;-67
2021/04/22 09:01:48;;;;;;;9.90;7.43;;;;;;;;;;732402;189;917103;-67
2021/04/22 09:04:14;;;;;;;12.87;7.07;;;;;;;;;;739893;189;916934;-67
2021/04/22 09:06:40;;;;;;;8.33;4.27;;;;;;;;;;734695;189;913706;-68
2021/04/22 09:09:06;;;;;;;11.90;6.33;;;;;;;;;;734199;189;1022575;-67
2021/04/22 09:11:32;;;;;;;17.67;7.73;;;;;;;;;;733060;189;964761;-67
2021/04/22 09:13:58;;;;;;;10.97;5.73;;;;;;;;;;733582;189;943692;-67
2021/04/22 09:16:24;;;;;;;10.13;6.05;;;;;;;;;;732939;189;1170098;-68
2021/04/22 09:18:49;;;;;;;15.13;6.73;;;;;;;;;;738775;189;930044;-65
2021/04/22 09:21:18;;;;;;;9.57;6.77;;;;;;;;;;731410;189;909054;-64
2021/04/22 09:23:44;;;;;;;10.80;7.20;;;;;;;;;;734195;189;914541;-64
2021/04/22 09:26:10;;;;;;;11.60;7.00;;;;;;;;;;732247;189;944944;-65
2021/04/22 09:28:36;;;;;;;11.30;7.53;;;;;;;;;;737472;189;933417;-65
2021/04/22 09:31:02;;;;;;;13.00;7.10;;;;;;;;;;731717;189;918964;-64
2021/04/22 09:33:28;;;;;;;14.20;6.80;;;;;;;;;;736547;189;916486;-65
2021/04/22 09:35:56;;;;;;;12.67;7.90;;;;;;;;;;741136;189;894001;-66
2021/04/22 09:38:22;;;;;;;15.63;9.10;;;;;;;;;;737021;188;990732;-66
2021/04/22 09:40:47;;;;;;;14.70;8.80;;;;;;;;;;736217;189;922498;-65
2021/04/22 09:43:14;;;;;;;10.37;6.87;;;;;;;;;;733371;189;919050;-64
2021/04/22 09:45:39;;;;;;;13.43;7.03;;;;;;;;;;740661;189;918998;-63
2021/04/22 09:48:12;;;;;;;9.37;5.83;;;;;;;;;;735755;189;919061;-65
2021/04/22 09:50:38;;;;;;;9.00;6.20;;;;;;;;;;732114;189;919424;-62
2021/04/22 09:53:04;;;;;;;12.03;7.57;;;;;;;;;;732792;189;919265;-64
2021/04/22 09:55:31;;;;;;;10.73;6.43;;;;;;;;;;736502;189;920229;-62
2021/04/22 09:57:56;;;;;;;13.70;7.50;;;;;;;;;;730755;189;1213487;-62
2021/04/22 10:00:22;;;;;;;12.60;6.97;;;;;;;;;;736138;189;616713;-64
2021/04/22 10:02:55;;;;;;;11.47;6.03;;;;;;;;;;734677;189;628727;-63
2021/04/22 10:05:18;;;;;;;11.33;7.47;;;;;;;;;;741248;189;628371;-63
2021/04/22 10:07:44;;;;;;;13.63;7.10;;;;;;;;;;736725;189;919275;-63
2021/04/22 10:10:13;;;;;;;10.70;7.13;;;;;;;;;;739056;189;926760;-63
2021/04/22 10:12:38;;;;;;;13.27;7.60;;;;;;;;;;734501;189;918968;-64
2021/04/22 10:15:08;;;;;;;12.80;7.13;;;;;;;;;;736482;189;918790;-63
2021/04/22 10:17:34;;;;;;;16.52;8.20;;;;;;;;;;737962;189;1065006;-66
2021/04/22 10:20:01;;;;;;;15.63;6.70;;;;;;;;;;740312;189;917991;-65
2021/04/22 10:22:28;;;;;;;11.00;7.80;;;;;;;;;;732400;189;922230;-63
2021/04/22 10:24:53;;;;;;;13.23;6.70;;;;;;;;;;734359;189;918764;-63
2021/04/22 10:27:20;;;;;;;12.30;6.10;;;;;;;;;;743542;189;901167;-63
2021/04/22 10:29:45;;;;;;;10.47;6.90;;;;;;;;;;734733;189;918778;-63
2021/04/22 10:32:11;;;;;;;11.93;7.70;;;;;;;;;;731916;189;922348;-62
2021/04/22 10:34:39;;;;;;;16.40;7.37;;;;;;;;;;728395;189;1021727;-62
2021/04/22 10:37:04;;;;;;;14.57;6.90;;;;;;;;;;733529;189;919532;-63
2021/04/22 10:39:30;;;;;;;13.57;8.43;;;;;;;;;;734126;189;1141292;-62
2021/04/22 10:41:56;;;;;;;11.43;7.72;;;;;;;;;;730628;189;2254550;-65
2021/04/22 10:44:23;;;;;;;10.47;7.47;;;;;;;;;;738570;189;861133;-65
2021/04/22 10:46:48;;;;;;;15.93;7.43;;;;;;;;;;737069;189;921482;-64
2021/04/22 10:49:14;;;;;;;11.98;8.68;;;;;;;;;;734553;189;918469;-64
2021/04/22 10:51:41;;;;;;;13.70;8.27;;;;;;;;;;739218;189;919084;-65
2021/04/22 10:54:07;;;;;;;12.80;7.63;;;;;;;;;;734751;189;919629;-65
2021/04/22 10:56:33;;;;;;;9.30;6.43;;;;;;;;;;739265;189;905671;-65
2021/04/22 10:58:59;;;;;;;9.87;6.93;;;;;;;;;;737357;189;916157;-64
2021/04/22 11:01:30;;;;;;;11.93;7.60;;;;;;;;;;737176;189;1014575;-64
2021/04/22 11:03:56;;;;;;;14.00;8.13;;;;;;;;;;731753;189;915976;-64
2021/04/22 11:06:21;;;;;;;14.10;8.20;;;;;;;;;;733908;186;1053815;-65
2021/04/22 11:08:47;;;;;;;15.17;8.37;;;;;;;;;;743062;189;919285;-64
2021/04/22 11:11:14;;;;;;;18.63;9.70;;;;;;;;;;730645;189;919503;-70
2021/04/22 11:13:40;;;;;;;10.40;6.97;;;;;;;;;;739326;189;919167;-65
2021/04/22 11:16:06;;;;;;;14.97;8.50;;;;;;;;;;730903;189;920001;-63
2021/04/22 11:18:33;;;;;;;16.83;8.20;;;;;;;;;;739505;189;918659;-65
2021/04/22 11:20:59;;;;;;;13.63;9.20;;;;;;;;;;735593;189;919281;-65
2021/04/22 11:23:25;;;;;;;12.33;7.63;;;;;;;;;;740024;189;919563;-65
2021/04/22 11:25:52;;;;;;;10.77;8.00;;;;;;;;;;738607;189;902997;-65
2021/04/22 11:28:31;;;;;;;14.30;9.00;;;;;;;;;;732626;189;918902;-64
2021/04/22 11:31:03;;;;;;;11.87;8.83;;;;;;;;;;733641;189;964486;-62
2021/04/22 11:33:29;;;;;;;13.13;9.40;;;;;;;;;;736526;189;919677;-62
2021/04/22 11:35:55;;;;;;;11.60;7.12;;;;;;;;;;734513;189;919169;-62
2021/04/22 11:38:21;;;;;;;12.53;7.87;;;;;;;;;;728643;190;919966;-62
2021/04/22 11:40:48;;;;;;;14.50;7.50;;;;;;;;;;732929;189;918616;-63
2021/04/22 11:43:18;;;;;;;13.93;8.40;;;;;;;;;;732710;187;919224;-62
2021/04/22 11:45:47;;;;;;;14.50;8.80;;;;;;;;;;741342;189;920185;-64
2021/04/22 11:48:13;;;;;;;18.03;9.83;;;;;;;;;;739967;189;919155;-63
2021/04/22 11:50:39;;;;;;;12.07;9.33;;;;;;;;;;738174;189;919173;-64
2021/04/22 11:53:06;;;;;;;14.15;9.25;;;;;;;;;;734500;189;919375;-64
2021/04/22 11:55:31;;;;;;;19.10;9.73;;;;;;;;;;739952;189;1022296;-64
2021/04/22 11:57:57;;;;;;;15.75;9.25;;;;;;;;;;733308;189;919060;-64
2021/04/22 12:00:24;;;;;;;14.40;9.33;;;;;;;;;;736978;187;919031;-63
2021/04/22 12:02:50;;;;;;;14.73;8.87;;;;;;;;;;743558;188;919260;-64
2021/04/22 12:05:16;;;;;;;14.90;9.77;;;;;;;;;;742945;189;649109;-64
2021/04/22 12:07:41;;;;;;;15.20;8.70;;;;;;;;;;738933;189;926340;-64
2021/04/22 12:10:11;;;;;;;17.87;10.20;;;;;;;;;;741933;189;917992;-64
2021/04/22 12:12:34;;;;;;;15.17;9.17;;;;;;;;;;734763;189;893064;-64
2021/04/22 12:15:00;;;;;;;13.63;8.70;;;;;;;;;;731094;189;1021440;-64
2021/04/22 12:17:27;;;;;;;12.80;9.27;;;;;;;;;;737112;189;918999;-64
2021/04/22 12:19:54;;;;;;;14.23;9.70;;;;;;;;;;740911;189;919280;-64
2021/04/22 12:22:25;;;;;;;11.80;8.17;;;;;;;;;;736334;189;918926;-67
2021/04/22 12:24:51;;;;;;;13.60;8.80;;;;;;;;;;732853;189;1011169;-64
2021/04/22 12:27:16;;;;;;;15.63;9.80;;;;;;;;;;739465;189;919861;-64
2021/04/22 12:29:42;;;;;;;15.25;9.40;;;;;;;;;;731811;189;920224;-64
2021/04/22 12:32:09;;;;;;;16.63;9.30;;;;;;;;;;737294;189;918223;-64
2021/04/22 12:34:33;;;;;;;13.73;9.97;;;;;;;;;;731137;189;1177219;-64
2021/04/22 12:36:59;;;;;;;16.13;8.40;;;;;;;;;;734033;189;920078;-64
2021/04/22 12:39:26;;;;;;;17.50;10.37;;;;;;;;;;732124;189;920702;-64
2021/04/22 12:42:07;;;;;;;14.52;9.40;;;;;;;;;;730620;189;919626;-66
2021/04/22 12:44:33;;;;;;;18.73;10.57;;;;;;;;;;733143;189;1025187;-63
2021/04/22 12:47:01;;;;;;;21.48;11.38;;;;;;;;;;744612;189;919783;-64
2021/04/22 12:49:27;;;;;;;23.17;11.50;;;;;;;;;;731320;189;917733;-64
2021/04/22 12:51:53;;;;;;;19.03;9.53;;;;;;;;;;735717;189;920276;-64
2021/04/22 12:54:19;;;;;;;20.43;10.37;;;;;;;;;;739482;189;913021;-64
2021/04/22 12:56:45;;;;;;;13.93;9.50;;;;;;;;;;737040;189;921246;-64
2021/04/22 12:59:10;;;;;;;15.70;10.73;;;;;;;;;;727020;189;918792;-64
2021/04/22 13:01:37;;;;;;;33.57;18.23;;;;;;;;;;738046;189;918503;-64
2021/04/22 13:04:04;;;;;;;20.80;13.03;;;;;;;;;;735332;189;921113;-64
2021/04/22 13:06:30;;;;;;;18.93;10.97;;;;;;;;;;734516;189;915121;-64
2021/04/22 13:08:57;;;;;;;15.13;10.85;;;;;;;;;;736790;186;914322;-66
2021/04/22 13:11:22;;;;;;;21.97;10.40;;;;;;;;;;735043;189;912947;-64
2021/04/22 13:13:49;;;;;;;18.53;10.10;;;;;;;;;;736448;188;910289;-65
2021/04/22 13:16:15;;;;;;;22.77;10.50;;;;;;;;;;733828;189;918644;-64
2021/04/22 13:18:41;;;;;;;12.40;8.43;;;;;;;;;;742535;189;919262;-63
2021/04/22 13:21:22;;;;;;;19.73;12.30;;;;;;;;;;734822;189;919128;-65
2021/04/22 13:23:49;;;;;;;14.73;9.10;;;;;;;;;;733812;189;919771;-63
2021/04/22 13:26:17;;;;;;;17.00;9.97;;;;;;;;;;732643;189;924029;-63
2021/04/22 13:28:42;;;;;;;20.07;14.37;;;;;;;;;;735994;189;919688;-63
2021/04/22 13:31:12;;;;;;;17.77;9.53;;;;;;;;;;736296;189;920301;-63
2021/04/22 13:33:38;;;;;;;18.20;12.50;;;;;;;;;;736859;189;921703;-64
2021/04/22 13:36:04;;;;;;;16.50;10.90;;;;;;;;;;736142;189;920583;-65
2021/04/22 13:38:31;;;;;;;21.05;11.95;;;;;;;;;;741652;189;919452;-65
2021/04/22 13:40:57;;;;;;;17.90;12.33;;;;;;;;;;732447;189;1347558;-64
2021/04/22 13:43:22;;;;;;;13.53;9.73;;;;;;;;;;736899;189;921973;-66
2021/04/22 13:45:48;;;;;;;13.50;8.43;;;;;;;;;;729152;189;919459;-64
2021/04/22 13:48:15;;;;;;;13.10;8.73;;;;;;;;;;738839;189;919983;-65
2021/04/22 13:50:40;;;;;;;22.33;9.90;;;;;;;;;;736705;189;1021194;-65
2021/04/22 13:53:06;;;;;;;14.65;8.65;;;;;;;;;;736083;189;918761;-65
2021/04/22 13:55:47;;;;;;;19.10;10.50;;;;;;;;;;739686;189;919994;-64
2021/04/22 13:58:13;;;;;;;13.53;9.80;;;;;;;;;;736277;189;918142;-65
2021/04/22 14:00:39;;;;;;;17.07;10.00;;;;;;;;;;736584;189;919850;-64